sensor_id;sensor_type;location;lat;lon;timestamp;P1;durP1;ratioP1;P2;durP2;ratioP2
24090;SDS011;12272;52.426;17.100;2023-04-03T00:04:57;4.40;;;1.80;;
24090;SDS011;12272;52.426;17.100;2023-04-03T00:10:00;5.47;;;2.50;;
24090;SDS011;12272;52.426;17.100;2023-04-03T00:15:02;5.53;;;1.87;;
24090;SDS011;12272;52.426;17.100;2023-04-03T00:20:05;5.73;;;1.93;;
24090;SDS011;12272;52.426;17.100;2023-04-03T00:25:09;7.40;;;1.63;;
24090;SDS011;12272;52.426;17.100;2023-04-03T00:30:13;5.27;;;1.77;;
24090;SDS011;12272;52.426;17.100;2023-04-03T00:35:17;5.80;;;1.40;;
24090;SDS011;12272;52.426;17.100;2023-04-03T00:40:22;4.17;;;1.17;;
24090;SDS011;12272;52.426;17.100;2023-04-03T00:50:44;6.50;;;1.83;;
24090;SDS011;12272;52.426;17.100;2023-04-03T00:55:48;3.73;;;1.80;;
24090;SDS011;12272;52.426;17.100;2023-04-03T01:00:53;2.80;;;1.50;;
24090;SDS011;12272;52.426;17.100;2023-04-03T01:05:59;3.87;;;1.57;;
24090;SDS011;12272;52.426;17.100;2023-04-03T01:11:03;6.30;;;1.73;;
24090;SDS011;12272;52.426;17.100;2023-04-03T01:16:05;3.53;;;1.43;;
24090;SDS011;12272;52.426;17.100;2023-04-03T01:26:18;4.00;;;1.27;;
24090;SDS011;12272;52.426;17.100;2023-04-03T01:31:31;3.73;;;1.37;;
24090;SDS011;12272;52.426;17.100;2023-04-03T01:36:37;3.80;;;1.70;;
24090;SDS011;12272;52.426;17.100;2023-04-03T01:41:40;3.23;;;1.63;;
24090;SDS011;12272;52.426;17.100;2023-04-03T01:46:52;4.23;;;1.80;;
24090;SDS011;12272;52.426;17.100;2023-04-03T01:51:56;5.83;;;1.53;;
24090;SDS011;12272;52.426;17.100;2023-04-03T01:56:59;4.00;;;1.40;;
24090;SDS011;12272;52.426;17.100;2023-04-03T02:02:02;4.20;;;1.37;;
24090;SDS011;12272;52.426;17.100;2023-04-03T02:07:05;5.00;;;1.27;;
24090;SDS011;12272;52.426;17.100;2023-04-03T02:12:07;4.20;;;1.43;;
24090;SDS011;12272;52.426;17.100;2023-04-03T02:17:10;5.47;;;1.30;;
24090;SDS011;12272;52.426;17.100;2023-04-03T02:22:13;3.17;;;1.20;;
24090;SDS011;12272;52.426;17.100;2023-04-03T02:27:15;3.27;;;1.47;;
24090;SDS011;12272;52.426;17.100;2023-04-03T02:32:18;4.13;;;1.37;;
24090;SDS011;12272;52.426;17.100;2023-04-03T02:37:22;3.37;;;1.13;;
24090;SDS011;12272;52.426;17.100;2023-04-03T02:42:27;2.53;;;1.10;;
24090;SDS011;12272;52.426;17.100;2023-04-03T02:47:29;2.90;;;1.80;;
24090;SDS011;12272;52.426;17.100;2023-04-03T02:52:32;6.30;;;1.40;;
24090;SDS011;12272;52.426;17.100;2023-04-03T02:57:35;4.60;;;1.47;;
24090;SDS011;12272;52.426;17.100;2023-04-03T03:02:38;3.37;;;1.50;;
24090;SDS011;12272;52.426;17.100;2023-04-03T03:07:41;3.90;;;1.17;;
24090;SDS011;12272;52.426;17.100;2023-04-03T03:12:44;3.60;;;1.33;;
24090;SDS011;12272;52.426;17.100;2023-04-03T03:17:47;2.80;;;1.33;;
24090;SDS011;12272;52.426;17.100;2023-04-03T03:22:50;3.83;;;1.53;;
24090;SDS011;12272;52.426;17.100;2023-04-03T03:27:52;3.63;;;1.73;;
24090;SDS011;12272;52.426;17.100;2023-04-03T03:32:56;3.87;;;0.97;;
24090;SDS011;12272;52.426;17.100;2023-04-03T03:37:58;2.73;;;1.37;;
24090;SDS011;12272;52.426;17.100;2023-04-03T03:43:01;8.40;;;1.67;;
24090;SDS011;12272;52.426;17.100;2023-04-03T03:48:04;3.10;;;1.10;;
24090;SDS011;12272;52.426;17.100;2023-04-03T03:53:07;5.50;;;1.20;;
24090;SDS011;12272;52.426;17.100;2023-04-03T03:58:10;6.30;;;1.80;;
24090;SDS011;12272;52.426;17.100;2023-04-03T04:03:13;5.13;;;1.10;;
24090;SDS011;12272;52.426;17.100;2023-04-03T04:08:19;7.00;;;1.20;;
24090;SDS011;12272;52.426;17.100;2023-04-03T04:13:21;4.13;;;1.23;;
24090;SDS011;12272;52.426;17.100;2023-04-03T04:18:25;2.90;;;1.13;;
24090;SDS011;12272;52.426;17.100;2023-04-03T04:23:28;6.63;;;1.23;;
24090;SDS011;12272;52.426;17.100;2023-04-03T04:28:32;3.03;;;0.90;;
24090;SDS011;12272;52.426;17.100;2023-04-03T04:33:38;3.77;;;1.20;;
24090;SDS011;12272;52.426;17.100;2023-04-03T04:38:48;1.20;;;0.67;;
24090;SDS011;12272;52.426;17.100;2023-04-03T04:43:58;0.87;;;0.40;;
24090;SDS011;12272;52.426;17.100;2023-04-03T04:49:06;6.33;;;1.23;;
24090;SDS011;12272;52.426;17.100;2023-04-03T04:54:09;2.57;;;1.23;;
24090;SDS011;12272;52.426;17.100;2023-04-03T04:59:13;2.93;;;1.23;;
24090;SDS011;12272;52.426;17.100;2023-04-03T05:04:16;1.83;;;1.13;;
24090;SDS011;12272;52.426;17.100;2023-04-03T05:09:23;4.63;;;1.43;;
24090;SDS011;12272;52.426;17.100;2023-04-03T05:14:27;3.70;;;1.73;;
24090;SDS011;12272;52.426;17.100;2023-04-03T05:19:34;6.67;;;2.30;;
24090;SDS011;12272;52.426;17.100;2023-04-03T05:24:39;6.10;;;1.63;;
24090;SDS011;12272;52.426;17.100;2023-04-03T05:29:43;5.77;;;1.70;;
24090;SDS011;12272;52.426;17.100;2023-04-03T05:34:51;7.20;;;2.57;;
24090;SDS011;12272;52.426;17.100;2023-04-03T05:39:54;5.67;;;2.37;;
24090;SDS011;12272;52.426;17.100;2023-04-03T05:44:57;4.17;;;1.97;;
24090;SDS011;12272;52.426;17.100;2023-04-03T05:49:59;8.93;;;2.87;;
24090;SDS011;12272;52.426;17.100;2023-04-03T05:55:03;2.87;;;1.53;;
24090;SDS011;12272;52.426;17.100;2023-04-03T06:00:11;3.40;;;1.63;;
24090;SDS011;12272;52.426;17.100;2023-04-03T06:05:20;4.50;;;1.60;;
24090;SDS011;12272;52.426;17.100;2023-04-03T06:10:24;4.13;;;2.13;;
24090;SDS011;12272;52.426;17.100;2023-04-03T06:15:27;5.80;;;2.23;;
24090;SDS011;12272;52.426;17.100;2023-04-03T06:20:30;3.80;;;1.17;;
24090;SDS011;12272;52.426;17.100;2023-04-03T06:25:33;4.20;;;1.43;;
24090;SDS011;12272;52.426;17.100;2023-04-03T06:30:36;2.50;;;0.93;;
24090;SDS011;12272;52.426;17.100;2023-04-03T06:35:39;4.13;;;1.73;;
24090;SDS011;12272;52.426;17.100;2023-04-03T06:40:42;5.03;;;1.17;;
24090;SDS011;12272;52.426;17.100;2023-04-03T06:45:45;1.57;;;1.00;;
24090;SDS011;12272;52.426;17.100;2023-04-03T06:50:48;2.27;;;1.20;;
24090;SDS011;12272;52.426;17.100;2023-04-03T06:55:51;3.73;;;1.33;;
24090;SDS011;12272;52.426;17.100;2023-04-03T07:00:54;5.27;;;1.47;;
24090;SDS011;12272;52.426;17.100;2023-04-03T07:05:57;2.27;;;0.90;;
24090;SDS011;12272;52.426;17.100;2023-04-03T07:11:00;4.23;;;1.53;;
24090;SDS011;12272;52.426;17.100;2023-04-03T07:16:03;2.67;;;1.00;;
24090;SDS011;12272;52.426;17.100;2023-04-03T07:21:07;2.37;;;1.07;;
24090;SDS011;12272;52.426;17.100;2023-04-03T07:26:10;3.83;;;1.00;;
24090;SDS011;12272;52.426;17.100;2023-04-03T07:31:13;1.53;;;0.80;;
24090;SDS011;12272;52.426;17.100;2023-04-03T07:36:18;3.93;;;0.97;;
24090;SDS011;12272;52.426;17.100;2023-04-03T07:41:22;1.60;;;1.10;;
24090;SDS011;12272;52.426;17.100;2023-04-03T07:46:25;2.40;;;1.37;;
24090;SDS011;12272;52.426;17.100;2023-04-03T07:51:28;3.97;;;1.50;;
24090;SDS011;12272;52.426;17.100;2023-04-03T07:56:31;2.73;;;0.90;;
24090;SDS011;12272;52.426;17.100;2023-04-03T08:01:34;5.10;;;1.90;;
24090;SDS011;12272;52.426;17.100;2023-04-03T08:06:37;4.43;;;0.97;;
24090;SDS011;12272;52.426;17.100;2023-04-03T08:11:47;6.50;;;1.90;;
24090;SDS011;12272;52.426;17.100;2023-04-03T08:16:50;3.13;;;1.00;;
24090;SDS011;12272;52.426;17.100;2023-04-03T08:21:53;2.37;;;1.37;;
24090;SDS011;12272;52.426;17.100;2023-04-03T08:26:57;1.00;;;0.73;;
24090;SDS011;12272;52.426;17.100;2023-04-03T08:32:00;2.60;;;1.03;;
24090;SDS011;12272;52.426;17.100;2023-04-03T08:37:02;1.23;;;0.80;;
24090;SDS011;12272;52.426;17.100;2023-04-03T08:42:07;3.87;;;1.20;;
24090;SDS011;12272;52.426;17.100;2023-04-03T08:47:40;2.90;;;1.37;;
24090;SDS011;12272;52.426;17.100;2023-04-03T08:53:00;4.23;;;1.10;;
24090;SDS011;12272;52.426;17.100;2023-04-03T08:58:10;3.33;;;0.93;;
24090;SDS011;12272;52.426;17.100;2023-04-03T09:03:19;3.90;;;1.20;;
24090;SDS011;12272;52.426;17.100;2023-04-03T09:08:30;1.43;;;1.33;;
24090;SDS011;12272;52.426;17.100;2023-04-03T09:13:53;6.10;;;2.23;;
24090;SDS011;12272;52.426;17.100;2023-04-03T09:24:25;1.80;;;0.90;;
24090;SDS011;12272;52.426;17.100;2023-04-03T09:29:28;3.80;;;1.30;;
24090;SDS011;12272;52.426;17.100;2023-04-03T09:34:32;4.97;;;1.63;;
24090;SDS011;12272;52.426;17.100;2023-04-03T09:39:52;3.00;;;1.60;;
24090;SDS011;12272;52.426;17.100;2023-04-03T09:44:59;2.47;;;1.50;;
24090;SDS011;12272;52.426;17.100;2023-04-03T09:55:18;4.07;;;1.30;;
24090;SDS011;12272;52.426;17.100;2023-04-03T10:00:22;2.70;;;1.37;;
24090;SDS011;12272;52.426;17.100;2023-04-03T10:10:37;3.03;;;1.40;;
24090;SDS011;12272;52.426;17.100;2023-04-03T10:15:42;5.33;;;1.17;;
24090;SDS011;12272;52.426;17.100;2023-04-03T10:20:48;1.63;;;0.57;;
24090;SDS011;12272;52.426;17.100;2023-04-03T10:26:09;1.83;;;0.83;;
24090;SDS011;12272;52.426;17.100;2023-04-03T10:47:32;12.13;;;2.53;;
24090;SDS011;12272;52.426;17.100;2023-04-03T10:53:04;6.17;;;2.20;;
24090;SDS011;12272;52.426;17.100;2023-04-03T10:58:30;2.63;;;1.90;;
24090;SDS011;12272;52.426;17.100;2023-04-03T11:03:40;2.33;;;1.60;;
24090;SDS011;12272;52.426;17.100;2023-04-03T11:08:52;1.90;;;1.10;;
24090;SDS011;12272;52.426;17.100;2023-04-03T11:14:03;1.40;;;0.80;;
24090;SDS011;12272;52.426;17.100;2023-04-03T11:19:18;4.27;;;1.43;;
24090;SDS011;12272;52.426;17.100;2023-04-03T11:24:27;3.70;;;1.40;;
24090;SDS011;12272;52.426;17.100;2023-04-03T11:29:34;3.33;;;1.93;;
24090;SDS011;12272;52.426;17.100;2023-04-03T11:34:44;3.13;;;1.33;;
24090;SDS011;12272;52.426;17.100;2023-04-03T11:39:54;2.97;;;1.23;;
24090;SDS011;12272;52.426;17.100;2023-04-03T12:16:19;6.60;;;1.73;;
24090;SDS011;12272;52.426;17.100;2023-04-03T12:48:59;3.17;;;1.77;;
24090;SDS011;12272;52.426;17.100;2023-04-03T12:54:03;3.63;;;1.87;;
24090;SDS011;12272;52.426;17.100;2023-04-03T12:59:27;1.00;;;0.80;;
24090;SDS011;12272;52.426;17.100;2023-04-03T13:04:31;3.23;;;1.50;;
24090;SDS011;12272;52.426;17.100;2023-04-03T13:09:34;4.73;;;1.40;;
24090;SDS011;12272;52.426;17.100;2023-04-03T13:14:37;3.30;;;2.43;;
24090;SDS011;12272;52.426;17.100;2023-04-03T13:19:40;4.90;;;1.53;;
24090;SDS011;12272;52.426;17.100;2023-04-03T13:24:43;4.23;;;1.60;;
24090;SDS011;12272;52.426;17.100;2023-04-03T13:29:53;4.03;;;1.47;;
24090;SDS011;12272;52.426;17.100;2023-04-03T13:35:02;2.23;;;1.10;;
24090;SDS011;12272;52.426;17.100;2023-04-03T13:40:25;2.77;;;1.73;;
24090;SDS011;12272;52.426;17.100;2023-04-03T13:45:33;5.23;;;1.47;;
24090;SDS011;12272;52.426;17.100;2023-04-03T13:50:53;2.10;;;1.43;;
24090;SDS011;12272;52.426;17.100;2023-04-03T13:56:09;2.77;;;1.37;;
24090;SDS011;12272;52.426;17.100;2023-04-03T14:01:20;1.60;;;1.00;;
24090;SDS011;12272;52.426;17.100;2023-04-03T14:06:24;3.37;;;1.67;;
24090;SDS011;12272;52.426;17.100;2023-04-03T14:11:28;3.40;;;1.60;;
24090;SDS011;12272;52.426;17.100;2023-04-03T14:16:32;2.20;;;1.63;;
24090;SDS011;12272;52.426;17.100;2023-04-03T14:21:40;2.30;;;1.47;;
24090;SDS011;12272;52.426;17.100;2023-04-03T14:26:43;2.43;;;1.43;;
24090;SDS011;12272;52.426;17.100;2023-04-03T14:31:46;1.73;;;1.00;;
24090;SDS011;12272;52.426;17.100;2023-04-03T14:36:52;2.80;;;1.63;;
24090;SDS011;12272;52.426;17.100;2023-04-03T14:41:55;1.80;;;1.33;;
24090;SDS011;12272;52.426;17.100;2023-04-03T14:46:58;2.10;;;1.77;;
24090;SDS011;12272;52.426;17.100;2023-04-03T14:52:01;2.63;;;1.87;;
24090;SDS011;12272;52.426;17.100;2023-04-03T14:57:05;2.57;;;1.80;;
24090;SDS011;12272;52.426;17.100;2023-04-03T15:02:22;3.10;;;1.77;;
24090;SDS011;12272;52.426;17.100;2023-04-03T15:07:34;2.13;;;1.33;;
24090;SDS011;12272;52.426;17.100;2023-04-03T15:12:38;3.13;;;1.67;;
24090;SDS011;12272;52.426;17.100;2023-04-03T15:17:41;1.60;;;1.10;;
24090;SDS011;12272;52.426;17.100;2023-04-03T15:22:44;2.00;;;1.33;;
24090;SDS011;12272;52.426;17.100;2023-04-03T15:27:47;5.87;;;1.23;;
24090;SDS011;12272;52.426;17.100;2023-04-03T15:32:50;4.67;;;1.40;;
24090;SDS011;12272;52.426;17.100;2023-04-03T15:37:53;1.57;;;1.33;;
24090;SDS011;12272;52.426;17.100;2023-04-03T15:42:55;2.27;;;1.10;;
24090;SDS011;12272;52.426;17.100;2023-04-03T15:47:58;1.53;;;1.00;;
24090;SDS011;12272;52.426;17.100;2023-04-03T15:53:01;1.73;;;1.27;;
24090;SDS011;12272;52.426;17.100;2023-04-03T15:58:04;1.63;;;1.50;;
24090;SDS011;12272;52.426;17.100;2023-04-03T16:03:08;2.63;;;1.40;;
24090;SDS011;12272;52.426;17.100;2023-04-03T16:08:17;4.53;;;3.10;;
24090;SDS011;12272;52.426;17.100;2023-04-03T16:13:20;4.07;;;1.50;;
24090;SDS011;12272;52.426;17.100;2023-04-03T16:18:23;2.70;;;1.37;;
24090;SDS011;12272;52.426;17.100;2023-04-03T16:23:25;2.63;;;1.20;;
24090;SDS011;12272;52.426;17.100;2023-04-03T16:28:28;1.47;;;1.00;;
24090;SDS011;12272;52.426;17.100;2023-04-03T16:33:31;2.40;;;1.57;;
24090;SDS011;12272;52.426;17.100;2023-04-03T16:38:34;1.73;;;0.97;;
24090;SDS011;12272;52.426;17.100;2023-04-03T16:43:37;1.57;;;1.00;;
24090;SDS011;12272;52.426;17.100;2023-04-03T16:48:39;1.23;;;0.87;;
24090;SDS011;12272;52.426;17.100;2023-04-03T16:53:42;6.60;;;2.83;;
24090;SDS011;12272;52.426;17.100;2023-04-03T16:58:44;5.57;;;2.90;;
24090;SDS011;12272;52.426;17.100;2023-04-03T17:03:47;5.67;;;2.13;;
24090;SDS011;12272;52.426;17.100;2023-04-03T17:08:50;4.00;;;2.03;;
24090;SDS011;12272;52.426;17.100;2023-04-03T17:14:03;6.00;;;4.10;;
24090;SDS011;12272;52.426;17.100;2023-04-03T17:19:06;3.87;;;1.90;;
24090;SDS011;12272;52.426;17.100;2023-04-03T17:24:09;4.87;;;2.87;;
24090;SDS011;12272;52.426;17.100;2023-04-03T17:29:14;4.07;;;1.87;;
24090;SDS011;12272;52.426;17.100;2023-04-03T17:34:17;3.43;;;2.07;;
24090;SDS011;12272;52.426;17.100;2023-04-03T17:39:20;4.57;;;2.10;;
24090;SDS011;12272;52.426;17.100;2023-04-03T17:44:22;2.90;;;1.80;;
24090;SDS011;12272;52.426;17.100;2023-04-03T17:49:25;8.03;;;4.23;;
24090;SDS011;12272;52.426;17.100;2023-04-03T17:54:27;3.90;;;2.37;;
24090;SDS011;12272;52.426;17.100;2023-04-03T17:59:30;6.07;;;2.40;;
24090;SDS011;12272;52.426;17.100;2023-04-03T18:04:33;4.47;;;2.70;;
24090;SDS011;12272;52.426;17.100;2023-04-03T18:09:36;2.40;;;1.60;;
24090;SDS011;12272;52.426;17.100;2023-04-03T18:14:42;2.63;;;1.50;;
24090;SDS011;12272;52.426;17.100;2023-04-03T18:19:45;3.67;;;2.13;;
24090;SDS011;12272;52.426;17.100;2023-04-03T18:24:49;3.03;;;1.90;;
24090;SDS011;12272;52.426;17.100;2023-04-03T18:29:56;4.63;;;2.73;;
24090;SDS011;12272;52.426;17.100;2023-04-03T18:35:03;4.03;;;2.20;;
24090;SDS011;12272;52.426;17.100;2023-04-03T18:40:07;5.43;;;2.30;;
24090;SDS011;12272;52.426;17.100;2023-04-03T18:45:11;3.10;;;1.90;;
24090;SDS011;12272;52.426;17.100;2023-04-03T18:50:21;4.07;;;1.70;;
24090;SDS011;12272;52.426;17.100;2023-04-03T18:55:23;2.30;;;1.60;;
24090;SDS011;12272;52.426;17.100;2023-04-03T19:00:26;3.37;;;1.67;;
24090;SDS011;12272;52.426;17.100;2023-04-03T19:05:29;2.30;;;1.80;;
24090;SDS011;12272;52.426;17.100;2023-04-03T19:10:32;6.03;;;2.03;;
24090;SDS011;12272;52.426;17.100;2023-04-03T19:15:35;2.03;;;1.67;;
24090;SDS011;12272;52.426;17.100;2023-04-03T19:20:37;3.73;;;2.57;;
24090;SDS011;12272;52.426;17.100;2023-04-03T19:25:40;7.83;;;4.00;;
24090;SDS011;12272;52.426;17.100;2023-04-03T19:30:42;4.87;;;3.17;;
24090;SDS011;12272;52.426;17.100;2023-04-03T19:35:49;6.23;;;3.73;;
24090;SDS011;12272;52.426;17.100;2023-04-03T19:40:51;6.20;;;3.17;;
24090;SDS011;12272;52.426;17.100;2023-04-03T19:45:54;7.03;;;3.63;;
24090;SDS011;12272;52.426;17.100;2023-04-03T19:50:57;10.03;;;4.70;;
24090;SDS011;12272;52.426;17.100;2023-04-03T19:55:59;7.90;;;4.90;;
24090;SDS011;12272;52.426;17.100;2023-04-03T20:01:02;8.33;;;4.70;;
24090;SDS011;12272;52.426;17.100;2023-04-03T20:06:04;7.77;;;5.10;;
24090;SDS011;12272;52.426;17.100;2023-04-03T20:11:07;9.53;;;5.53;;
24090;SDS011;12272;52.426;17.100;2023-04-03T20:16:10;8.07;;;4.83;;
24090;SDS011;12272;52.426;17.100;2023-04-03T20:21:13;5.67;;;3.77;;
24090;SDS011;12272;52.426;17.100;2023-04-03T20:26:19;4.40;;;1.90;;
24090;SDS011;12272;52.426;17.100;2023-04-03T20:31:24;2.53;;;1.67;;
24090;SDS011;12272;52.426;17.100;2023-04-03T20:36:29;6.43;;;2.83;;
24090;SDS011;12272;52.426;17.100;2023-04-03T20:41:32;4.97;;;3.20;;
24090;SDS011;12272;52.426;17.100;2023-04-03T20:46:38;6.03;;;3.80;;
24090;SDS011;12272;52.426;17.100;2023-04-03T20:51:54;5.73;;;3.87;;
24090;SDS011;12272;52.426;17.100;2023-04-03T20:56:56;5.67;;;3.70;;
24090;SDS011;12272;52.426;17.100;2023-04-03T21:01:59;5.23;;;3.20;;
24090;SDS011;12272;52.426;17.100;2023-04-03T21:23:56;3.00;;;2.13;;
24090;SDS011;12272;52.426;17.100;2023-04-03T21:28:58;5.17;;;2.73;;
24090;SDS011;12272;52.426;17.100;2023-04-03T21:34:01;4.90;;;3.23;;
24090;SDS011;12272;52.426;17.100;2023-04-03T21:39:04;6.57;;;3.03;;
24090;SDS011;12272;52.426;17.100;2023-04-03T21:44:06;4.17;;;2.10;;
24090;SDS011;12272;52.426;17.100;2023-04-03T21:49:09;5.30;;;3.83;;
24090;SDS011;12272;52.426;17.100;2023-04-03T21:54:13;5.80;;;3.30;;
24090;SDS011;12272;52.426;17.100;2023-04-03T21:59:16;7.17;;;3.47;;
24090;SDS011;12272;52.426;17.100;2023-04-03T22:04:19;6.93;;;4.00;;
24090;SDS011;12272;52.426;17.100;2023-04-03T22:14:54;4.60;;;3.13;;
24090;SDS011;12272;52.426;17.100;2023-04-03T22:19:56;8.13;;;3.73;;
24090;SDS011;12272;52.426;17.100;2023-04-03T22:24:59;9.67;;;4.27;;
24090;SDS011;12272;52.426;17.100;2023-04-03T22:30:02;4.33;;;2.77;;
24090;SDS011;12272;52.426;17.100;2023-04-03T22:35:05;6.97;;;3.80;;
24090;SDS011;12272;52.426;17.100;2023-04-03T22:40:08;6.93;;;3.97;;
24090;SDS011;12272;52.426;17.100;2023-04-03T22:45:11;8.70;;;4.67;;
24090;SDS011;12272;52.426;17.100;2023-04-03T22:50:14;9.23;;;4.77;;
24090;SDS011;12272;52.426;17.100;2023-04-03T22:55:17;8.90;;;4.80;;
24090;SDS011;12272;52.426;17.100;2023-04-03T23:00:20;5.67;;;4.00;;
24090;SDS011;12272;52.426;17.100;2023-04-03T23:05:23;9.23;;;4.13;;
24090;SDS011;12272;52.426;17.100;2023-04-03T23:10:26;8.30;;;5.10;;
24090;SDS011;12272;52.426;17.100;2023-04-03T23:15:28;9.17;;;4.80;;
24090;SDS011;12272;52.426;17.100;2023-04-03T23:20:31;8.30;;;5.07;;
24090;SDS011;12272;52.426;17.100;2023-04-03T23:25:33;11.80;;;5.43;;
24090;SDS011;12272;52.426;17.100;2023-04-03T23:30:36;7.23;;;4.10;;
24090;SDS011;12272;52.426;17.100;2023-04-03T23:35:43;6.77;;;3.43;;
24090;SDS011;12272;52.426;17.100;2023-04-03T23:40:48;8.93;;;4.30;;
24090;SDS011;12272;52.426;17.100;2023-04-03T23:45:51;5.00;;;3.47;;
24090;SDS011;12272;52.426;17.100;2023-04-03T23:50:54;8.13;;;3.60;;
24090;SDS011;12272;52.426;17.100;2023-04-03T23:55:57;5.23;;;2.73;;
